sensor_id;sensor_type;location;lat;lon;timestamp;pressure;altitude;pressure_sealevel;temperature;humidity
70982;BME280;58640;51.320;9.456;2023-04-30T00:01:31;99924.13;;;6.98;97.11
70982;BME280;58640;51.320;9.456;2023-04-30T00:03:56;99925.94;;;6.88;97.59
70982;BME280;58640;51.320;9.456;2023-04-30T00:06:22;99930.03;;;7.02;96.39
70982;BME280;58640;51.320;9.456;2023-04-30T00:08:47;99937.50;;;7.08;96.02
70982;BME280;58640;51.320;9.456;2023-04-30T00:11:13;99935.09;;;6.95;96.76
70982;BME280;58640;51.320;9.456;2023-04-30T00:13:38;99932.84;;;7.10;96.42
70982;BME280;58640;51.320;9.456;2023-04-30T00:16:04;99930.72;;;7.04;95.76
70982;BME280;58640;51.320;9.456;2023-04-30T00:18:29;99925.38;;;6.85;96.72
70982;BME280;58640;51.320;9.456;2023-04-30T00:20:54;99935.78;;;6.97;96.52
70982;BME280;58640;51.320;9.456;2023-04-30T00:23:20;99932.97;;;6.89;95.86
70982;BME280;58640;51.320;9.456;2023-04-30T00:25:45;99933.41;;;6.94;96.39
70982;BME280;58640;51.320;9.456;2023-04-30T00:28:10;99919.44;;;6.72;97.07
70982;BME280;58640;51.320;9.456;2023-04-30T00:30:36;99928.47;;;6.61;97.76
70982;BME280;58640;51.320;9.456;2023-04-30T00:33:01;99936.63;;;6.60;97.69
70982;BME280;58640;51.320;9.456;2023-04-30T00:35:26;99936.22;;;6.74;96.92
70982;BME280;58640;51.320;9.456;2023-04-30T00:37:52;99941.97;;;6.69;96.98
70982;BME280;58640;51.320;9.456;2023-04-30T00:40:17;99950.69;;;6.52;97.82
70982;BME280;58640;51.320;9.456;2023-04-30T00:42:44;99946.31;;;6.51;98.07
70982;BME280;58640;51.320;9.456;2023-04-30T00:45:09;99938.84;;;6.55;97.49
70982;BME280;58640;51.320;9.456;2023-04-30T00:47:35;99941.94;;;6.50;98.04
70982;BME280;58640;51.320;9.456;2023-04-30T00:50:01;99943.19;;;6.46;97.93
70982;BME280;58640;51.320;9.456;2023-04-30T00:52:26;99950.97;;;6.59;97.30
70982;BME280;58640;51.320;9.456;2023-04-30T00:54:52;99952.63;;;6.50;97.24
70982;BME280;58640;51.320;9.456;2023-04-30T00:57:19;99946.72;;;6.47;97.20
70982;BME280;58640;51.320;9.456;2023-04-30T00:59:45;99948.81;;;6.43;97.42
70982;BME280;58640;51.320;9.456;2023-04-30T01:02:11;99952.00;;;6.28;98.38
70982;BME280;58640;51.320;9.456;2023-04-30T01:04:37;99956.03;;;6.52;97.43
70982;BME280;58640;51.320;9.456;2023-04-30T01:07:03;99952.34;;;6.53;96.66
70982;BME280;58640;51.320;9.456;2023-04-30T01:09:29;99959.66;;;6.51;96.79
70982;BME280;58640;51.320;9.456;2023-04-30T01:17:20;99960.88;;;6.28;98.31
70982;BME280;58640;51.320;9.456;2023-04-30T01:19:47;99964.09;;;6.22;98.56
70982;BME280;58640;51.320;9.456;2023-04-30T01:25:43;99958.75;;;6.22;98.56
70982;BME280;58640;51.320;9.456;2023-04-30T01:28:17;99960.72;;;6.20;98.36
70982;BME280;58640;51.320;9.456;2023-04-30T01:30:44;99958.19;;;6.19;98.57
70982;BME280;58640;51.320;9.456;2023-04-30T01:33:10;99958.84;;;6.11;98.96
70982;BME280;58640;51.320;9.456;2023-04-30T01:47:05;99964.31;;;6.10;98.31
70982;BME280;58640;51.320;9.456;2023-04-30T01:52:48;99969.94;;;6.07;98.61
70982;BME280;58640;51.320;9.456;2023-04-30T01:55:32;99970.16;;;5.94;99.03
70982;BME280;58640;51.320;9.456;2023-04-30T01:58:04;99972.00;;;5.93;99.04
70982;BME280;58640;51.320;9.456;2023-04-30T02:00:29;99963.53;;;5.88;99.14
70982;BME280;58640;51.320;9.456;2023-04-30T02:02:55;99968.28;;;5.85;99.42
70982;BME280;58640;51.320;9.456;2023-04-30T02:05:21;99975.69;;;5.81;99.60
70982;BME280;58640;51.320;9.456;2023-04-30T02:07:48;99975.44;;;5.84;99.25
70982;BME280;58640;51.320;9.456;2023-04-30T02:10:16;99977.91;;;5.76;99.36
70982;BME280;58640;51.320;9.456;2023-04-30T02:12:41;99985.84;;;5.67;99.81
70982;BME280;58640;51.320;9.456;2023-04-30T02:15:07;99980.91;;;5.62;100.00
70982;BME280;58640;51.320;9.456;2023-04-30T02:17:33;99985.00;;;5.66;100.00
70982;BME280;58640;51.320;9.456;2023-04-30T02:19:58;99983.00;;;5.59;100.00
70982;BME280;58640;51.320;9.456;2023-04-30T02:22:24;99990.88;;;5.60;100.00
70982;BME280;58640;51.320;9.456;2023-04-30T02:24:49;99985.06;;;5.55;100.00
70982;BME280;58640;51.320;9.456;2023-04-30T02:27:15;99979.59;;;5.57;99.97
70982;BME280;58640;51.320;9.456;2023-04-30T02:29:40;99990.00;;;5.39;100.00
70982;BME280;58640;51.320;9.456;2023-04-30T02:32:06;99989.72;;;5.33;100.00
70982;BME280;58640;51.320;9.456;2023-04-30T02:34:31;99985.00;;;5.25;100.00
70982;BME280;58640;51.320;9.456;2023-04-30T02:36:57;99991.00;;;5.18;100.00
70982;BME280;58640;51.320;9.456;2023-04-30T02:39:22;99985.41;;;5.21;100.00
70982;BME280;58640;51.320;9.456;2023-04-30T02:41:47;99985.97;;;5.04;100.00
70982;BME280;58640;51.320;9.456;2023-04-30T02:44:13;99988.63;;;5.04;100.00
70982;BME280;58640;51.320;9.456;2023-04-30T02:46:38;99981.97;;;4.98;100.00
70982;BME280;58640;51.320;9.456;2023-04-30T02:49:04;99979.13;;;5.11;100.00
70982;BME280;58640;51.320;9.456;2023-04-30T02:51:29;99981.47;;;5.04;100.00
70982;BME280;58640;51.320;9.456;2023-04-30T02:53:55;99987.97;;;4.91;100.00
70982;BME280;58640;51.320;9.456;2023-04-30T02:56:20;99995.47;;;4.86;100.00
70982;BME280;58640;51.320;9.456;2023-04-30T02:58:46;99997.41;;;4.84;100.00
70982;BME280;58640;51.320;9.456;2023-04-30T03:01:11;100000.34;;;4.81;100.00
70982;BME280;58640;51.320;9.456;2023-04-30T03:03:36;99993.72;;;4.75;100.00
70982;BME280;58640;51.320;9.456;2023-04-30T03:06:02;100004.75;;;4.71;100.00
70982;BME280;58640;51.320;9.456;2023-04-30T03:08:27;100003.75;;;4.72;100.00
70982;BME280;58640;51.320;9.456;2023-04-30T03:10:52;100008.59;;;4.78;100.00
70982;BME280;58640;51.320;9.456;2023-04-30T03:13:18;100005.06;;;4.77;100.00
70982;BME280;58640;51.320;9.456;2023-04-30T03:15:43;100008.09;;;4.73;100.00
70982;BME280;58640;51.320;9.456;2023-04-30T03:18:09;100006.19;;;4.75;100.00
70982;BME280;58640;51.320;9.456;2023-04-30T03:20:35;100017.44;;;4.78;100.00
70982;BME280;58640;51.320;9.456;2023-04-30T03:23:01;100014.66;;;4.80;100.00
70982;BME280;58640;51.320;9.456;2023-04-30T03:25:26;100017.44;;;4.78;100.00
70982;BME280;58640;51.320;9.456;2023-04-30T03:27:51;100018.47;;;4.87;100.00
70982;BME280;58640;51.320;9.456;2023-04-30T03:30:17;100024.88;;;4.95;100.00
70982;BME280;58640;51.320;9.456;2023-04-30T03:32:42;100021.00;;;4.99;100.00
70982;BME280;58640;51.320;9.456;2023-04-30T03:35:07;100015.16;;;5.05;100.00
70982;BME280;58640;51.320;9.456;2023-04-30T03:37:33;100018.03;;;5.13;100.00
70982;BME280;58640;51.320;9.456;2023-04-30T03:39:58;100025.41;;;5.21;98.97
70982;BME280;58640;51.320;9.456;2023-04-30T03:42:23;100028.88;;;5.01;99.43
70982;BME280;58640;51.320;9.456;2023-04-30T03:44:49;100017.38;;;5.00;100.00
70982;BME280;58640;51.320;9.456;2023-04-30T03:47:15;100022.53;;;5.13;99.08
70982;BME280;58640;51.320;9.456;2023-04-30T03:49:40;100022.41;;;5.14;98.67
70982;BME280;58640;51.320;9.456;2023-04-30T03:52:06;100022.31;;;5.05;99.76
70982;BME280;58640;51.320;9.456;2023-04-30T03:54:31;100018.69;;;5.06;99.86
70982;BME280;58640;51.320;9.456;2023-04-30T03:56:58;100022.88;;;5.19;99.82
70982;BME280;58640;51.320;9.456;2023-04-30T03:59:23;100018.16;;;5.12;99.59
70982;BME280;58640;51.320;9.456;2023-04-30T04:01:49;100024.81;;;5.17;99.42
70982;BME280;58640;51.320;9.456;2023-04-30T04:04:15;100022.41;;;5.14;99.50
70982;BME280;58640;51.320;9.456;2023-04-30T04:06:41;100029.66;;;5.12;99.79
70982;BME280;58640;51.320;9.456;2023-04-30T04:09:06;100032.81;;;5.17;99.90
70982;BME280;58640;51.320;9.456;2023-04-30T04:11:32;100024.94;;;5.16;99.56
70982;BME280;58640;51.320;9.456;2023-04-30T04:13:58;100027.47;;;5.17;99.84
70982;BME280;58640;51.320;9.456;2023-04-30T04:16:23;100028.97;;;5.10;100.00
70982;BME280;58640;51.320;9.456;2023-04-30T04:18:49;100033.31;;;5.11;100.00
70982;BME280;58640;51.320;9.456;2023-04-30T04:21:15;100030.53;;;5.13;100.00
70982;BME280;58640;51.320;9.456;2023-04-30T04:23:40;100031.38;;;5.13;99.87
70982;BME280;58640;51.320;9.456;2023-04-30T04:26:06;100038.38;;;5.14;100.00
70982;BME280;58640;51.320;9.456;2023-04-30T04:28:31;100036.19;;;5.19;99.36
70982;BME280;58640;51.320;9.456;2023-04-30T04:30:56;100034.69;;;5.06;100.00
70982;BME280;58640;51.320;9.456;2023-04-30T04:33:22;100033.88;;;5.26;99.33
70982;BME280;58640;51.320;9.456;2023-04-30T04:35:47;100035.97;;;5.43;98.42
70982;BME280;58640;51.320;9.456;2023-04-30T04:38:13;100031.88;;;5.39;97.80
70982;BME280;58640;51.320;9.456;2023-04-30T04:40:38;100031.59;;;5.42;98.03
70982;BME280;58640;51.320;9.456;2023-04-30T04:43:04;100040.88;;;5.58;97.55
70982;BME280;58640;51.320;9.456;2023-04-30T04:45:29;100039.03;;;5.59;97.40
70982;BME280;58640;51.320;9.456;2023-04-30T04:47:55;100038.84;;;5.71;97.38
70982;BME280;58640;51.320;9.456;2023-04-30T04:50:21;100038.22;;;6.00;96.05
70982;BME280;58640;51.320;9.456;2023-04-30T04:52:46;100042.56;;;6.01;95.79
70982;BME280;58640;51.320;9.456;2023-04-30T04:55:12;100044.06;;;6.14;94.99
70982;BME280;58640;51.320;9.456;2023-04-30T04:57:38;100044.75;;;6.16;95.41
70982;BME280;58640;51.320;9.456;2023-04-30T05:00:04;100051.88;;;6.36;94.46
70982;BME280;58640;51.320;9.456;2023-04-30T05:02:32;100065.00;;;6.49;92.71
70982;BME280;58640;51.320;9.456;2023-04-30T05:04:57;100062.97;;;6.62;92.92
70982;BME280;58640;51.320;9.456;2023-04-30T05:07:23;100057.97;;;6.97;90.94
70982;BME280;58640;51.320;9.456;2023-04-30T05:09:48;100062.50;;;7.06;90.92
70982;BME280;58640;51.320;9.456;2023-04-30T05:12:13;100060.38;;;7.00;90.73
70982;BME280;58640;51.320;9.456;2023-04-30T05:14:39;100061.66;;;7.15;90.49
70982;BME280;58640;51.320;9.456;2023-04-30T05:17:05;100071.53;;;7.33;90.00
70982;BME280;58640;51.320;9.456;2023-04-30T05:19:31;100069.59;;;7.45;89.06
70982;BME280;58640;51.320;9.456;2023-04-30T05:21:56;100072.13;;;7.66;87.60
70982;BME280;58640;51.320;9.456;2023-04-30T05:24:22;100087.66;;;8.18;85.90
70982;BME280;58640;51.320;9.456;2023-04-30T05:26:48;100082.72;;;8.32;84.17
70982;BME280;58640;51.320;9.456;2023-04-30T05:29:13;100079.91;;;8.34;84.69
70982;BME280;58640;51.320;9.456;2023-04-30T05:31:39;100081.38;;;8.55;82.39
70982;BME280;58640;51.320;9.456;2023-04-30T05:34:04;100087.44;;;8.84;81.29
70982;BME280;58640;51.320;9.456;2023-04-30T05:36:30;100090.13;;;9.12;80.44
70982;BME280;58640;51.320;9.456;2023-04-30T05:38:56;100090.53;;;9.34;78.13
70982;BME280;58640;51.320;9.456;2023-04-30T05:41:22;100086.53;;;9.56;75.39
70982;BME280;58640;51.320;9.456;2023-04-30T05:43:47;100094.44;;;9.92;75.00
70982;BME280;58640;51.320;9.456;2023-04-30T05:46:12;100089.34;;;10.07;73.51
70982;BME280;58640;51.320;9.456;2023-04-30T05:48:38;100099.19;;;9.98;74.49
70982;BME280;58640;51.320;9.456;2023-04-30T05:51:04;100093.44;;;9.93;72.16
70982;BME280;58640;51.320;9.456;2023-04-30T05:53:32;100091.47;;;10.39;71.39
70982;BME280;58640;51.320;9.456;2023-04-30T05:55:57;100102.44;;;10.53;68.24
70982;BME280;58640;51.320;9.456;2023-04-30T05:58:23;100094.66;;;10.76;66.88
70982;BME280;58640;51.320;9.456;2023-04-30T06:00:49;100091.63;;;10.71;67.25
70982;BME280;58640;51.320;9.456;2023-04-30T06:03:16;100092.75;;;10.34;65.84
70982;BME280;58640;51.320;9.456;2023-04-30T06:05:41;100090.38;;;10.31;66.04
70982;BME280;58640;51.320;9.456;2023-04-30T06:08:07;100094.94;;;10.65;64.29
70982;BME280;58640;51.320;9.456;2023-04-30T06:10:32;100091.56;;;10.96;62.94
70982;BME280;58640;51.320;9.456;2023-04-30T06:12:57;100084.41;;;11.21;62.62
70982;BME280;58640;51.320;9.456;2023-04-30T06:15:23;100093.16;;;11.15;61.64
70982;BME280;58640;51.320;9.456;2023-04-30T06:17:48;100076.97;;;11.81;60.30
70982;BME280;58640;51.320;9.456;2023-04-30T06:20:13;100085.38;;;11.86;58.38
70982;BME280;58640;51.320;9.456;2023-04-30T06:22:40;100093.66;;;12.00;57.78
70982;BME280;58640;51.320;9.456;2023-04-30T06:25:06;100088.25;;;12.00;58.66
70982;BME280;58640;51.320;9.456;2023-04-30T06:27:31;100086.88;;;12.44;56.87
70982;BME280;58640;51.320;9.456;2023-04-30T06:29:56;100092.81;;;11.92;56.20
70982;BME280;58640;51.320;9.456;2023-04-30T06:32:22;100085.56;;;11.84;56.79
70982;BME280;58640;51.320;9.456;2023-04-30T06:34:48;100085.44;;;13.50;53.49
70982;BME280;58640;51.320;9.456;2023-04-30T06:37:13;100080.72;;;14.11;50.81
70982;BME280;58640;51.320;9.456;2023-04-30T06:39:38;100083.19;;;14.73;49.27
70982;BME280;58640;51.320;9.456;2023-04-30T06:42:04;100088.78;;;15.00;48.24
70982;BME280;58640;51.320;9.456;2023-04-30T06:44:29;100082.63;;;14.62;48.29
70982;BME280;58640;51.320;9.456;2023-04-30T06:46:54;100094.88;;;16.37;44.91
70982;BME280;58640;51.320;9.456;2023-04-30T06:49:20;100094.22;;;19.90;36.72
70982;BME280;58640;51.320;9.456;2023-04-30T06:51:45;100093.22;;;21.80;32.91
70982;BME280;58640;51.320;9.456;2023-04-30T06:54:10;100089.25;;;22.81;30.99
70982;BME280;58640;51.320;9.456;2023-04-30T06:56:36;100108.41;;;25.01;26.88
70982;BME280;58640;51.320;9.456;2023-04-30T06:59:01;100096.97;;;26.48;23.94
70982;BME280;58640;51.320;9.456;2023-04-30T07:01:27;100099.72;;;26.80;23.78
70982;BME280;58640;51.320;9.456;2023-04-30T07:03:53;100106.69;;;25.76;24.93
70982;BME280;58640;51.320;9.456;2023-04-30T07:06:19;100109.41;;;27.24;22.36
70982;BME280;58640;51.320;9.456;2023-04-30T07:08:45;100101.25;;;27.44;22.31
70982;BME280;58640;51.320;9.456;2023-04-30T07:11:10;100102.84;;;27.30;22.96
70982;BME280;58640;51.320;9.456;2023-04-30T07:13:36;100102.22;;;26.50;23.21
70982;BME280;58640;51.320;9.456;2023-04-30T07:16:03;100100.53;;;26.44;23.88
70982;BME280;58640;51.320;9.456;2023-04-30T07:18:28;100097.69;;;28.35;21.34
70982;BME280;58640;51.320;9.456;2023-04-30T07:20:54;100104.72;;;26.83;23.35
70982;BME280;58640;51.320;9.456;2023-04-30T07:23:19;100102.94;;;27.03;22.31
70982;BME280;58640;51.320;9.456;2023-04-30T07:25:45;100106.25;;;27.05;22.53
70982;BME280;58640;51.320;9.456;2023-04-30T07:28:10;100092.44;;;27.47;22.04
70982;BME280;58640;51.320;9.456;2023-04-30T07:30:36;100090.00;;;27.56;22.35
70982;BME280;58640;51.320;9.456;2023-04-30T07:33:01;100094.59;;;28.42;21.14
70982;BME280;58640;51.320;9.456;2023-04-30T07:35:27;100094.91;;;27.02;23.52
70982;BME280;58640;51.320;9.456;2023-04-30T07:37:52;100093.19;;;28.04;22.25
70982;BME280;58640;51.320;9.456;2023-04-30T07:40:17;100088.31;;;27.03;23.00
70982;BME280;58640;51.320;9.456;2023-04-30T07:42:43;100096.41;;;27.71;21.52
70982;BME280;58640;51.320;9.456;2023-04-30T07:45:09;100096.94;;;26.43;23.84
70982;BME280;58640;51.320;9.456;2023-04-30T07:47:35;100099.00;;;26.26;23.61
70982;BME280;58640;51.320;9.456;2023-04-30T07:50:00;100098.31;;;23.67;27.50
70982;BME280;58640;51.320;9.456;2023-04-30T07:52:25;100095.94;;;20.89;32.50
70982;BME280;58640;51.320;9.456;2023-04-30T07:54:51;100082.75;;;19.37;35.92
70982;BME280;58640;51.320;9.456;2023-04-30T07:57:16;100099.44;;;19.98;33.59
70982;BME280;58640;51.320;9.456;2023-04-30T07:59:41;100097.84;;;19.84;33.91
70982;BME280;58640;51.320;9.456;2023-04-30T08:02:07;100095.16;;;21.25;32.44
70982;BME280;58640;51.320;9.456;2023-04-30T08:04:33;100095.09;;;22.61;29.55
70982;BME280;58640;51.320;9.456;2023-04-30T08:06:59;100096.69;;;24.89;25.83
70982;BME280;58640;51.320;9.456;2023-04-30T08:09:26;100098.94;;;25.73;23.59
70982;BME280;58640;51.320;9.456;2023-04-30T08:11:51;100097.31;;;26.88;22.85
70982;BME280;58640;51.320;9.456;2023-04-30T08:14:17;100095.56;;;27.14;21.88
70982;BME280;58640;51.320;9.456;2023-04-30T08:16:42;100100.16;;;28.82;20.42
70982;BME280;58640;51.320;9.456;2023-04-30T08:19:08;100091.84;;;30.35;18.40
70982;BME280;58640;51.320;9.456;2023-04-30T08:21:33;100093.47;;;28.08;21.86
70982;BME280;58640;51.320;9.456;2023-04-30T08:23:58;100091.94;;;27.70;21.82
70982;BME280;58640;51.320;9.456;2023-04-30T08:26:24;100094.75;;;29.56;19.83
70982;BME280;58640;51.320;9.456;2023-04-30T08:28:49;100100.66;;;27.37;20.93
70982;BME280;58640;51.320;9.456;2023-04-30T08:31:16;100090.78;;;28.58;20.62
70982;BME280;58640;51.320;9.456;2023-04-30T08:33:41;100088.81;;;28.33;20.92
70982;BME280;58640;51.320;9.456;2023-04-30T08:36:06;100084.59;;;27.96;21.27
70982;BME280;58640;51.320;9.456;2023-04-30T08:38:32;100092.97;;;28.91;19.96
70982;BME280;58640;51.320;9.456;2023-04-30T08:41:13;100090.63;;;29.48;19.54
70982;BME280;58640;51.320;9.456;2023-04-30T08:43:41;100095.13;;;30.42;18.27
70982;BME280;58640;51.320;9.456;2023-04-30T08:46:06;100088.19;;;27.96;21.62
70982;BME280;58640;51.320;9.456;2023-04-30T08:48:33;100088.66;;;29.49;19.46
70982;BME280;58640;51.320;9.456;2023-04-30T08:51:03;100087.09;;;28.07;21.27
70982;BME280;58640;51.320;9.456;2023-04-30T08:53:29;100089.69;;;28.54;20.57
70982;BME280;58640;51.320;9.456;2023-04-30T08:55:55;100082.75;;;28.51;20.29
70982;BME280;58640;51.320;9.456;2023-04-30T08:58:21;100086.63;;;29.74;17.86
70982;BME280;58640;51.320;9.456;2023-04-30T09:00:46;100080.03;;;29.60;18.81
70982;BME280;58640;51.320;9.456;2023-04-30T09:03:12;100071.22;;;27.68;20.23
70982;BME280;58640;51.320;9.456;2023-04-30T09:05:37;100068.38;;;27.43;21.27
70982;BME280;58640;51.320;9.456;2023-04-30T09:08:03;100074.69;;;28.25;20.73
70982;BME280;58640;51.320;9.456;2023-04-30T09:10:31;100070.56;;;28.52;21.01
70982;BME280;58640;51.320;9.456;2023-04-30T09:15:27;100077.72;;;27.32;21.11
70982;BME280;58640;51.320;9.456;2023-04-30T09:20:37;100062.06;;;27.52;22.03
70982;BME280;58640;51.320;9.456;2023-04-30T09:23:10;100062.06;;;25.79;23.50
70982;BME280;58640;51.320;9.456;2023-04-30T09:25:39;100061.44;;;26.88;22.44
70982;BME280;58640;51.320;9.456;2023-04-30T09:28:09;100062.34;;;26.04;24.47
70982;BME280;58640;51.320;9.456;2023-04-30T09:30:35;100062.13;;;25.84;23.33
70982;BME280;58640;51.320;9.456;2023-04-30T09:33:01;100064.81;;;26.64;23.38
70982;BME280;58640;51.320;9.456;2023-04-30T09:35:34;100054.28;;;26.24;22.96
70982;BME280;58640;51.320;9.456;2023-04-30T09:38:01;100055.81;;;24.14;25.63
70982;BME280;58640;51.320;9.456;2023-04-30T09:40:41;100053.56;;;25.16;24.34
70982;BME280;58640;51.320;9.456;2023-04-30T09:43:07;100053.66;;;25.64;23.51
70982;BME280;58640;51.320;9.456;2023-04-30T09:48:07;100056.94;;;26.14;22.69
70982;BME280;58640;51.320;9.456;2023-04-30T09:50:37;100055.22;;;25.81;23.87
70982;BME280;58640;51.320;9.456;2023-04-30T09:53:07;100050.13;;;25.68;24.34
70982;BME280;58640;51.320;9.456;2023-04-30T09:55:34;100051.84;;;25.10;24.18
70982;BME280;58640;51.320;9.456;2023-04-30T09:58:03;100031.72;;;25.31;24.87
70982;BME280;58640;51.320;9.456;2023-04-30T10:00:29;100041.78;;;25.63;24.23
70982;BME280;58640;51.320;9.456;2023-04-30T10:02:57;100039.16;;;25.09;25.23
70982;BME280;58640;51.320;9.456;2023-04-30T10:05:23;100037.97;;;24.00;26.14
70982;BME280;58640;51.320;9.456;2023-04-30T10:07:49;100042.16;;;25.07;25.73
70982;BME280;58640;51.320;9.456;2023-04-30T10:10:15;100037.13;;;24.00;28.39
70982;BME280;58640;51.320;9.456;2023-04-30T10:12:53;100032.97;;;24.80;26.12
70982;BME280;58640;51.320;9.456;2023-04-30T10:15:24;100024.31;;;23.61;27.43
70982;BME280;58640;51.320;9.456;2023-04-30T10:17:59;100026.69;;;24.30;26.30
70982;BME280;58640;51.320;9.456;2023-04-30T10:20:25;100021.94;;;23.53;27.08
70982;BME280;58640;51.320;9.456;2023-04-30T10:22:52;100020.38;;;23.17;27.69
70982;BME280;58640;51.320;9.456;2023-04-30T10:25:18;100019.78;;;23.15;27.60
70982;BME280;58640;51.320;9.456;2023-04-30T10:27:45;100016.06;;;22.70;29.11
70982;BME280;58640;51.320;9.456;2023-04-30T10:30:10;100014.03;;;22.77;29.13
70982;BME280;58640;51.320;9.456;2023-04-30T10:33:02;100007.44;;;22.32;29.12
70982;BME280;58640;51.320;9.456;2023-04-30T10:35:38;100010.09;;;21.56;30.50
70982;BME280;58640;51.320;9.456;2023-04-30T10:40:44;100004.88;;;21.96;31.32
70982;BME280;58640;51.320;9.456;2023-04-30T10:43:11;100007.81;;;20.51;33.50
70982;BME280;58640;51.320;9.456;2023-04-30T10:45:38;99996.91;;;21.05;34.23
70982;BME280;58640;51.320;9.456;2023-04-30T10:48:06;99995.56;;;20.96;34.20
70982;BME280;58640;51.320;9.456;2023-04-30T10:50:32;99991.38;;;20.76;31.78
70982;BME280;58640;51.320;9.456;2023-04-30T10:53:04;99993.06;;;20.34;32.04
70982;BME280;58640;51.320;9.456;2023-04-30T10:55:30;99986.44;;;19.99;32.85
70982;BME280;58640;51.320;9.456;2023-04-30T10:57:59;99988.31;;;20.66;31.26
70982;BME280;58640;51.320;9.456;2023-04-30T11:00:26;99975.00;;;20.87;31.97
70982;BME280;58640;51.320;9.456;2023-04-30T11:02:56;99977.84;;;20.99;30.78
70982;BME280;58640;51.320;9.456;2023-04-30T11:05:34;99974.94;;;20.58;33.92
70982;BME280;58640;51.320;9.456;2023-04-30T11:07:59;99967.84;;;20.07;34.43
70982;BME280;58640;51.320;9.456;2023-04-30T11:10:27;99974.00;;;19.78;36.14
70982;BME280;58640;51.320;9.456;2023-04-30T11:12:54;99964.78;;;19.73;35.97
70982;BME280;58640;51.320;9.456;2023-04-30T11:15:29;99972.72;;;19.81;35.72
70982;BME280;58640;51.320;9.456;2023-04-30T11:17:57;99966.84;;;20.02;34.50
70982;BME280;58640;51.320;9.456;2023-04-30T11:20:25;99970.16;;;19.55;35.71
70982;BME280;58640;51.320;9.456;2023-04-30T11:23:10;99963.97;;;18.97;36.98
70982;BME280;58640;51.320;9.456;2023-04-30T11:25:43;99957.22;;;18.55;38.93
70982;BME280;58640;51.320;9.456;2023-04-30T11:28:21;99953.63;;;18.61;39.23
70982;BME280;58640;51.320;9.456;2023-04-30T11:30:54;99950.16;;;18.22;39.77
70982;BME280;58640;51.320;9.456;2023-04-30T11:33:23;99958.34;;;17.50;41.88
70982;BME280;58640;51.320;9.456;2023-04-30T11:35:51;99956.56;;;17.16;40.36
70982;BME280;58640;51.320;9.456;2023-04-30T11:38:39;99951.34;;;16.61;40.43
70982;BME280;58640;51.320;9.456;2023-04-30T11:41:04;99942.88;;;16.84;41.39
70982;BME280;58640;51.320;9.456;2023-04-30T11:43:32;99936.91;;;16.54;41.79
70982;BME280;58640;51.320;9.456;2023-04-30T11:48:36;99940.84;;;16.99;43.75
70982;BME280;58640;51.320;9.456;2023-04-30T11:51:04;99929.78;;;17.26;43.95
70982;BME280;58640;51.320;9.456;2023-04-30T11:53:29;99925.78;;;17.09;43.17
70982;BME280;58640;51.320;9.456;2023-04-30T11:55:55;99925.34;;;16.99;43.92
70982;BME280;58640;51.320;9.456;2023-04-30T11:58:20;99923.47;;;17.00;44.31
70982;BME280;58640;51.320;9.456;2023-04-30T12:00:46;99926.00;;;17.08;42.28
70982;BME280;58640;51.320;9.456;2023-04-30T12:03:14;99915.06;;;16.88;41.66
70982;BME280;58640;51.320;9.456;2023-04-30T12:05:40;99919.50;;;16.89;41.88
70982;BME280;58640;51.320;9.456;2023-04-30T12:08:06;99906.50;;;16.38;42.39
70982;BME280;58640;51.320;9.456;2023-04-30T12:10:34;99906.66;;;16.64;42.79
70982;BME280;58640;51.320;9.456;2023-04-30T12:13:00;99914.31;;;16.20;42.91
70982;BME280;58640;51.320;9.456;2023-04-30T12:15:26;99899.81;;;15.99;43.33
70982;BME280;58640;51.320;9.456;2023-04-30T12:17:53;99909.34;;;16.23;43.28
70982;BME280;58640;51.320;9.456;2023-04-30T12:20:21;99898.38;;;16.03;43.08
70982;BME280;58640;51.320;9.456;2023-04-30T12:22:47;99904.81;;;16.02;44.55
70982;BME280;58640;51.320;9.456;2023-04-30T12:25:15;99896.53;;;16.10;43.18
70982;BME280;58640;51.320;9.456;2023-04-30T12:27:45;99901.34;;;16.15;43.15
70982;BME280;58640;51.320;9.456;2023-04-30T12:30:12;99897.97;;;16.06;44.62
70982;BME280;58640;51.320;9.456;2023-04-30T12:32:43;99906.56;;;16.17;42.40
70982;BME280;58640;51.320;9.456;2023-04-30T12:35:19;99898.50;;;15.61;43.64
70982;BME280;58640;51.320;9.456;2023-04-30T12:37:48;99900.59;;;15.66;44.42
70982;BME280;58640;51.320;9.456;2023-04-30T12:40:20;99896.69;;;15.68;44.50
70982;BME280;58640;51.320;9.456;2023-04-30T12:42:50;99897.41;;;15.83;44.76
70982;BME280;58640;51.320;9.456;2023-04-30T12:45:41;99880.31;;;15.89;44.39
70982;BME280;58640;51.320;9.456;2023-04-30T12:48:07;99880.03;;;16.12;44.91
70982;BME280;58640;51.320;9.456;2023-04-30T12:50:33;99874.66;;;16.19;42.75
70982;BME280;58640;51.320;9.456;2023-04-30T12:53:01;99875.88;;;16.09;43.75
70982;BME280;58640;51.320;9.456;2023-04-30T12:55:27;99875.78;;;15.96;43.86
70982;BME280;58640;51.320;9.456;2023-04-30T13:00:29;99863.06;;;15.97;46.22
70982;BME280;58640;51.320;9.456;2023-04-30T13:03:06;99863.97;;;16.10;42.96
70982;BME280;58640;51.320;9.456;2023-04-30T13:05:32;99862.38;;;15.33;43.16
70982;BME280;58640;51.320;9.456;2023-04-30T13:08:01;99855.91;;;15.13;43.68
70982;BME280;58640;51.320;9.456;2023-04-30T13:10:27;99857.88;;;14.98;44.28
70982;BME280;58640;51.320;9.456;2023-04-30T13:12:53;99860.47;;;15.06;44.07
70982;BME280;58640;51.320;9.456;2023-04-30T13:15:18;99850.16;;;15.23;44.28
70982;BME280;58640;51.320;9.456;2023-04-30T13:17:43;99845.47;;;15.31;44.50
70982;BME280;58640;51.320;9.456;2023-04-30T13:20:10;99850.22;;;15.50;45.95
70982;BME280;58640;51.320;9.456;2023-04-30T13:22:35;99844.94;;;15.70;46.85
70982;BME280;58640;51.320;9.456;2023-04-30T13:25:01;99842.91;;;15.78;44.85
70982;BME280;58640;51.320;9.456;2023-04-30T13:27:27;99838.94;;;15.74;42.60
70982;BME280;58640;51.320;9.456;2023-04-30T13:29:52;99838.06;;;15.74;42.33
70982;BME280;58640;51.320;9.456;2023-04-30T13:32:19;99829.69;;;15.69;42.63
70982;BME280;58640;51.320;9.456;2023-04-30T13:34:44;99842.16;;;15.57;42.80